createdAt,value
2017-04-20T00:00:34.285Z,1029.27
2017-04-20T00:01:35.538Z,1029.24
2017-04-20T00:02:36.769Z,1029.23
2017-04-20T00:03:37.996Z,1029.21
2017-04-20T00:04:39.318Z,1029.19
2017-04-20T00:05:41.524Z,1029.19
2017-04-20T00:06:42.785Z,1029.21
2017-04-20T00:07:44.081Z,1029.2
2017-04-20T00:08:45.364Z,1029.25
2017-04-20T00:09:46.658Z,1029.24
2017-04-20T00:10:47.923Z,1029.19
2017-04-20T00:11:49.150Z,1029.22
2017-04-20T00:12:50.373Z,1029.21
2017-04-20T00:13:51.606Z,1029.2
2017-04-20T00:14:52.839Z,1029.24
2017-04-20T00:15:54.082Z,1029.24
2017-04-20T00:16:55.296Z,1029.25
2017-04-20T00:17:56.675Z,1029.24
2017-04-20T00:18:57.930Z,1029.23
2017-04-20T00:19:59.170Z,1029.22
2017-04-20T00:21:00.423Z,1029.28
2017-04-20T00:22:01.631Z,1029.27
2017-04-20T00:23:02.918Z,1029.28
2017-04-20T00:24:04.151Z,1029.24
2017-04-20T00:25:05.412Z,1029.23
2017-04-20T00:26:06.640Z,1029.22
2017-04-20T00:27:07.898Z,1029.19
2017-04-20T00:28:09.175Z,1029.17
2017-04-20T00:29:10.540Z,1029.16
2017-04-20T00:30:11.787Z,1029.17
2017-04-20T00:31:13.006Z,1029.17
2017-04-20T00:32:14.254Z,1029.13
2017-04-20T00:33:15.474Z,1029.11
2017-04-20T00:34:16.720Z,1029.11
2017-04-20T00:35:17.942Z,1029.08
2017-04-20T00:36:19.229Z,1029.04
2017-04-20T00:37:20.460Z,1029.06
2017-04-20T00:38:21.689Z,1029.06
2017-04-20T00:39:22.924Z,1029.06
2017-04-20T00:40:24.157Z,1029.05
2017-04-20T00:41:25.409Z,1029.1
2017-04-20T00:42:26.739Z,1029.04
2017-04-20T00:43:27.981Z,1029.05
2017-04-20T00:44:29.242Z,1028.99
2017-04-20T00:45:30.493Z,1029
2017-04-20T00:46:31.720Z,1028.99
2017-04-20T00:47:32.962Z,1028.95
2017-04-20T00:48:34.170Z,1029.01
2017-04-20T00:49:35.473Z,1029.02
2017-04-20T00:50:36.717Z,1029.03
2017-04-20T00:51:37.939Z,1029.06
2017-04-20T00:52:39.191Z,1029.07
2017-04-20T00:53:40.406Z,1029.07
2017-04-20T00:54:41.649Z,1029.06
2017-04-20T00:55:42.882Z,1029.02
2017-04-20T00:56:44.107Z,1029.04
2017-04-20T00:57:45.356Z,1029.03
2017-04-20T00:58:46.588Z,1029.04
2017-04-20T00:59:47.824Z,1028.99
2017-04-20T01:00:49.110Z,1029.01
2017-04-20T01:01:50.323Z,1029.02
2017-04-20T01:02:51.731Z,1029
2017-04-20T01:03:53.027Z,1028.97
2017-04-20T01:04:54.247Z,1028.97
2017-04-20T01:05:55.483Z,1028.93
2017-04-20T01:06:56.735Z,1028.93
2017-04-20T01:07:57.981Z,1028.93
2017-04-20T01:08:59.328Z,1028.98
2017-04-20T01:10:00.564Z,1028.95
2017-04-20T01:11:01.778Z,1028.93
2017-04-20T01:12:03.004Z,1028.97
2017-04-20T01:13:04.245Z,1028.98
2017-04-20T01:14:05.481Z,1028.97
2017-04-20T01:15:06.780Z,1028.96
2017-04-20T01:16:08.004Z,1028.97
2017-04-20T01:17:09.230Z,1028.95
2017-04-20T01:18:10.484Z,1028.95
2017-04-20T01:19:11.780Z,1028.93
2017-04-20T01:20:13.032Z,1028.95
2017-04-20T01:21:14.263Z,1028.98
2017-04-20T01:22:15.603Z,1028.93
2017-04-20T01:23:16.857Z,1028.96
2017-04-20T01:24:18.086Z,1029
2017-04-20T01:25:19.315Z,1028.97
2017-04-20T01:26:20.543Z,1028.99
2017-04-20T01:27:21.857Z,1028.96
2017-04-20T01:28:23.093Z,1028.97
2017-04-20T01:29:24.315Z,1028.95
2017-04-20T01:30:25.540Z,1028.98
2017-04-20T01:31:26.771Z,1029
2017-04-20T01:32:28.000Z,1028.96
2017-04-20T01:34:53.660Z,1028.98
2017-04-20T01:35:54.903Z,1029.02
2017-04-20T01:36:56.136Z,1029.06
2017-04-20T01:37:57.366Z,1028.99
2017-04-20T01:38:58.593Z,1029.01
2017-04-20T01:39:59.834Z,1029.01
2017-04-20T01:41:01.099Z,1029.01
2017-04-20T01:42:02.332Z,1029.06
2017-04-20T01:43:03.563Z,1029.03
2017-04-20T01:44:04.800Z,1029.03
2017-04-20T01:45:06.046Z,1029.04
2017-04-20T01:46:07.307Z,1029.05
2017-04-20T01:47:08.543Z,1029.05
2017-04-20T01:48:09.778Z,1029.06
2017-04-20T01:49:11.001Z,1029.05
2017-04-20T01:50:12.230Z,1029
2017-04-20T01:51:13.483Z,1028.98
2017-04-20T01:52:14.768Z,1028.99
2017-04-20T01:53:16.022Z,1028.95
2017-04-20T01:54:17.304Z,1028.95
2017-04-20T01:55:18.614Z,1028.96
2017-04-20T01:56:19.780Z,1028.94
2017-04-20T01:57:21.026Z,1028.96
2017-04-20T01:58:22.281Z,1028.97
2017-04-20T01:59:23.508Z,1028.96
2017-04-20T02:00:25.083Z,1028.94
2017-04-20T02:01:26.198Z,1028.97
2017-04-20T02:02:27.442Z,1028.99
2017-04-20T02:03:28.671Z,1028.98
2017-04-20T02:04:29.946Z,1029.01
2017-04-20T02:05:31.206Z,1029
2017-04-20T02:06:32.422Z,1028.98
2017-04-20T02:07:33.745Z,1028.95
2017-04-20T02:08:35.015Z,1028.96
2017-04-20T02:09:36.255Z,1028.89
2017-04-20T02:10:37.483Z,1028.91
2017-04-20T02:11:38.713Z,1028.93
2017-04-20T02:12:39.982Z,1028.87
2017-04-20T02:13:41.301Z,1028.86
2017-04-20T02:14:42.559Z,1028.89
2017-04-20T02:15:43.788Z,1028.91
2017-04-20T02:16:44.996Z,1028.92
2017-04-20T02:17:46.276Z,1028.88
2017-04-20T02:18:47.605Z,1028.85
2017-04-20T02:19:48.922Z,1028.85
2017-04-20T02:20:50.153Z,1028.89
2017-04-20T02:21:51.381Z,1028.88
2017-04-20T02:22:52.612Z,1028.92
2017-04-20T02:23:53.856Z,1028.94
2017-04-20T02:24:55.191Z,1028.9
2017-04-20T02:25:56.324Z,1028.91
2017-04-20T02:26:57.651Z,1028.91
2017-04-20T02:27:58.920Z,1028.89
2017-04-20T02:29:00.164Z,1028.88
2017-04-20T02:30:01.401Z,1028.93
2017-04-20T02:31:02.610Z,1028.93
2017-04-20T02:32:03.859Z,1028.92
2017-04-20T02:33:05.130Z,1028.91
2017-04-20T02:34:06.315Z,1028.89
2017-04-20T02:35:07.547Z,1028.9
2017-04-20T02:36:08.778Z,1028.89
2017-04-20T02:37:10.107Z,1028.94
2017-04-20T02:38:11.344Z,1028.92
2017-04-20T02:39:12.587Z,1028.95
2017-04-20T02:40:13.941Z,1028.96
2017-04-20T02:41:15.258Z,1028.97
2017-04-20T02:42:16.528Z,1028.98
2017-04-20T02:43:17.743Z,1028.99
2017-04-20T02:44:19.135Z,1029
2017-04-20T02:45:20.247Z,1029.02
2017-04-20T02:46:21.532Z,1029.05
2017-04-20T02:47:22.863Z,1029.06
2017-04-20T02:48:24.095Z,1029.08
2017-04-20T02:49:25.344Z,1029.06
2017-04-20T02:50:26.554Z,1029.05
2017-04-20T02:51:27.842Z,1029.05
2017-04-20T02:52:29.178Z,1029.09
2017-04-20T02:53:30.407Z,1029.09
2017-04-20T02:54:31.631Z,1029.11
2017-04-20T02:55:32.886Z,1029.12
2017-04-20T02:56:34.091Z,1029.11
2017-04-20T02:57:35.446Z,1029.1
2017-04-20T02:58:36.695Z,1029.08
2017-04-20T02:59:37.896Z,1029.07
2017-04-20T03:00:39.133Z,1029.05
2017-04-20T03:01:40.371Z,1029.07
2017-04-20T03:02:41.596Z,1029.11
2017-04-20T03:03:42.877Z,1029.09
2017-04-20T03:04:44.217Z,1029.07
2017-04-20T03:05:45.467Z,1029.09
2017-04-20T03:06:46.701Z,1029.1
2017-04-20T03:07:47.920Z,1029.12
2017-04-20T03:08:49.159Z,1029.13
2017-04-20T03:09:50.438Z,1029.1
2017-04-20T03:10:51.694Z,1029.1
2017-04-20T03:11:52.952Z,1029.06
2017-04-20T03:12:54.186Z,1029.1
2017-04-20T03:13:55.418Z,1029.1
2017-04-20T03:14:56.647Z,1029.07
2017-04-20T03:15:57.983Z,1029.08
2017-04-20T03:16:59.493Z,1029.04
2017-04-20T03:18:00.736Z,1029.04
2017-04-20T03:19:01.975Z,1029
2017-04-20T03:20:03.219Z,1028.99
2017-04-20T03:21:04.435Z,1029.03
2017-04-20T03:22:05.719Z,1029.01
2017-04-20T03:23:06.958Z,1029.06
2017-04-20T03:24:08.188Z,1029.06
2017-04-20T03:25:09.423Z,1029.02
2017-04-20T03:26:10.689Z,1029
2017-04-20T03:27:12.080Z,1029.02
2017-04-20T03:28:13.447Z,1029.02
2017-04-20T03:29:14.686Z,1029.07
2017-04-20T03:30:15.909Z,1029.03
2017-04-20T03:31:17.162Z,1029
2017-04-20T03:32:18.379Z,1029.03
2017-04-20T03:33:19.631Z,1029.02
2017-04-20T03:34:20.856Z,1028.98
2017-04-20T03:35:22.088Z,1029.02
2017-04-20T03:36:23.374Z,1028.99
2017-04-20T03:37:24.609Z,1029.03
2017-04-20T03:38:25.853Z,1029.04
2017-04-20T03:39:27.074Z,1029.05
2017-04-20T03:40:28.311Z,1029.05
2017-04-20T03:41:29.558Z,1028.99
2017-04-20T03:42:30.835Z,1029
2017-04-20T03:43:32.073Z,1028.97
2017-04-20T03:44:33.315Z,1028.99
2017-04-20T03:45:34.561Z,1028.96
2017-04-20T03:46:35.947Z,1028.98
2017-04-20T03:47:37.179Z,1028.96
2017-04-20T03:48:38.404Z,1028.99
2017-04-20T03:49:39.682Z,1028.97
2017-04-20T03:50:40.925Z,1029
2017-04-20T03:51:42.175Z,1029.01
2017-04-20T03:52:43.411Z,1028.92
2017-04-20T03:53:44.637Z,1028.93
2017-04-20T03:54:45.867Z,1028.94
2017-04-20T03:55:47.125Z,1028.93
2017-04-20T03:56:48.371Z,1028.92
2017-04-20T03:57:49.617Z,1028.94
2017-04-20T03:58:50.854Z,1028.91
2017-04-20T03:59:52.138Z,1028.96
2017-04-20T04:00:53.367Z,1028.95
2017-04-20T04:01:54.601Z,1028.97
2017-04-20T04:02:55.829Z,1028.96
2017-04-20T04:03:57.065Z,1028.96
2017-04-20T04:04:58.293Z,1028.94
2017-04-20T04:05:59.519Z,1028.9
2017-04-20T04:07:00.756Z,1028.92
2017-04-20T04:08:01.979Z,1028.95
2017-04-20T04:09:03.293Z,1028.94
2017-04-20T04:10:04.631Z,1028.99
2017-04-20T04:11:05.864Z,1028.99
2017-04-20T04:12:07.093Z,1028.99
2017-04-20T04:13:08.341Z,1029.04
2017-04-20T04:14:09.568Z,1029.03
2017-04-20T04:15:10.980Z,1029.05
2017-04-20T04:16:12.144Z,1029.07
2017-04-20T04:17:13.393Z,1029.02
2017-04-20T04:18:14.621Z,1029.07
2017-04-20T04:19:15.832Z,1029.08
2017-04-20T04:20:17.063Z,1029.09
2017-04-20T04:21:18.317Z,1029.11
2017-04-20T04:22:19.543Z,1029.1
2017-04-20T04:23:20.770Z,1029.11
2017-04-20T04:24:21.996Z,1029.06
2017-04-20T04:25:23.236Z,1029.08
2017-04-20T04:26:24.487Z,1029.09
2017-04-20T04:27:25.844Z,1029.12
2017-04-20T04:28:27.055Z,1029.14
2017-04-20T04:29:28.384Z,1029.11
2017-04-20T04:30:29.630Z,1029.12
2017-04-20T04:31:30.844Z,1029.13
2017-04-20T04:32:32.143Z,1029.19
2017-04-20T04:33:33.499Z,1029.18
2017-04-20T04:34:34.862Z,1029.14
2017-04-20T04:35:36.090Z,1029.09
2017-04-20T04:36:37.319Z,1029.11
2017-04-20T04:37:38.573Z,1029.14
2017-04-20T04:38:39.849Z,1029.14
2017-04-20T04:39:41.190Z,1029.14
2017-04-20T04:40:42.337Z,1029.14
2017-04-20T04:41:43.648Z,1029.12
2017-04-20T04:42:44.877Z,1029.12
2017-04-20T04:43:46.106Z,1029.14
2017-04-20T04:44:47.342Z,1029.12
2017-04-20T04:45:48.626Z,1029.12
2017-04-20T04:46:49.985Z,1029.07
2017-04-20T04:47:51.215Z,1029.11
2017-04-20T04:48:52.496Z,1029.13
2017-04-20T04:49:53.729Z,1029.11
2017-04-20T04:50:54.984Z,1029.12
2017-04-20T04:51:56.218Z,1029.14
2017-04-20T04:52:57.508Z,1029.11
2017-04-20T04:53:58.755Z,1029.16
2017-04-20T04:54:59.994Z,1029.12
2017-04-20T04:56:01.215Z,1029.15
2017-04-20T04:57:02.444Z,1029.17
2017-04-20T04:58:03.738Z,1029.19
2017-04-20T04:59:04.966Z,1029.16
2017-04-20T05:00:06.208Z,1029.19
2017-04-20T05:01:07.456Z,1029.13
2017-04-20T05:02:08.683Z,1029.16
2017-04-20T05:03:09.916Z,1029.13
2017-04-20T05:04:11.184Z,1029.06
2017-04-20T05:05:12.433Z,1029.1
2017-04-20T05:06:13.687Z,1029.11
2017-04-20T05:07:15.043Z,1029.13
2017-04-20T05:08:16.274Z,1029.1
2017-04-20T05:09:17.478Z,1029.11
2017-04-20T05:10:18.724Z,1029.12
2017-04-20T05:11:19.968Z,1029.11
2017-04-20T05:12:21.315Z,1029.17
2017-04-20T05:13:22.555Z,1029.13
2017-04-20T05:14:23.808Z,1029.16
2017-04-20T05:15:25.026Z,1029.19
2017-04-20T05:16:26.249Z,1029.18
2017-04-20T05:17:27.482Z,1029.17
2017-04-20T05:18:28.701Z,1029.18
2017-04-20T05:19:30.045Z,1029.16
2017-04-20T05:20:31.287Z,1029.22
2017-04-20T05:21:32.518Z,1029.22
2017-04-20T05:22:33.755Z,1029.26
2017-04-20T05:23:34.992Z,1029.21
2017-04-20T05:24:36.271Z,1029.25
2017-04-20T05:25:37.616Z,1029.22
2017-04-20T05:26:38.892Z,1029.23
2017-04-20T05:27:40.082Z,1029.25
2017-04-20T05:28:41.342Z,1029.29
2017-04-20T05:29:42.596Z,1029.24
2017-04-20T05:30:43.837Z,1029.28
2017-04-20T05:31:45.147Z,1029.26
2017-04-20T05:32:46.324Z,1029.24
2017-04-20T05:33:47.709Z,1029.25
2017-04-20T05:34:48.981Z,1029.3
2017-04-20T05:35:50.217Z,1029.31
2017-04-20T05:36:51.576Z,1029.31
2017-04-20T05:37:52.827Z,1029.33
2017-04-20T05:38:54.082Z,1029.34
2017-04-20T05:39:55.311Z,1029.36
2017-04-20T05:40:56.570Z,1029.34
2017-04-20T05:41:57.786Z,1029.36
2017-04-20T05:42:59.020Z,1029.38
2017-04-20T05:44:00.291Z,1029.37
2017-04-20T05:45:01.588Z,1029.36
2017-04-20T05:46:02.941Z,1029.4
2017-04-20T05:47:04.194Z,1029.39
2017-04-20T05:48:05.428Z,1029.43
2017-04-20T05:49:06.683Z,1029.38
2017-04-20T05:50:07.931Z,1029.41
2017-04-20T05:51:09.168Z,1029.38
2017-04-20T05:52:10.407Z,1029.41
2017-04-20T05:53:11.694Z,1029.38
2017-04-20T05:54:12.970Z,1029.34
2017-04-20T05:55:14.202Z,1029.38
2017-04-20T05:56:15.576Z,1029.34
2017-04-20T05:57:16.864Z,1029.34
2017-04-20T05:58:18.084Z,1029.3
2017-04-20T05:59:19.510Z,1029.3
2017-04-20T06:00:20.707Z,1029.37
2017-04-20T06:01:21.957Z,1029.36
2017-04-20T06:02:23.232Z,1029.36
2017-04-20T06:03:24.466Z,1029.39
2017-04-20T06:04:25.744Z,1029.42
2017-04-20T06:05:26.977Z,1029.42
2017-04-20T06:06:28.206Z,1029.4
2017-04-20T06:07:29.507Z,1029.43
2017-04-20T06:08:30.774Z,1029.45
2017-04-20T06:09:32.041Z,1029.43
2017-04-20T06:10:33.298Z,1029.47
2017-04-20T06:11:34.525Z,1029.42
2017-04-20T06:12:35.771Z,1029.43
2017-04-20T06:13:37.009Z,1029.42
2017-04-20T06:14:38.249Z,1029.43
2017-04-20T06:15:39.605Z,1029.45
2017-04-20T06:16:40.953Z,1029.43
2017-04-20T06:17:42.199Z,1029.41
2017-04-20T06:18:43.447Z,1029.44
2017-04-20T06:19:44.689Z,1029.45
2017-04-20T06:20:45.945Z,1029.49
2017-04-20T06:21:47.225Z,1029.49
2017-04-20T06:22:48.464Z,1029.49
2017-04-20T06:23:49.789Z,1029.51
2017-04-20T06:24:51.040Z,1029.48
2017-04-20T06:25:52.284Z,1029.52
2017-04-20T06:26:53.556Z,1029.53
2017-04-20T06:27:54.781Z,1029.56
2017-04-20T06:28:56.028Z,1029.58
2017-04-20T06:29:57.280Z,1029.58
2017-04-20T06:30:58.631Z,1029.54
2017-04-20T06:31:59.855Z,1029.59
2017-04-20T06:33:01.104Z,1029.64
2017-04-20T06:34:02.455Z,1029.62
2017-04-20T06:35:03.811Z,1029.65
2017-04-20T06:36:05.043Z,1029.63
2017-04-20T06:37:06.284Z,1029.62
2017-04-20T06:38:07.534Z,1029.62
2017-04-20T06:39:08.774Z,1029.61
2017-04-20T06:40:10.025Z,1029.57
2017-04-20T06:41:11.414Z,1029.56
2017-04-20T06:42:12.662Z,1029.59
2017-04-20T06:43:13.922Z,1029.59
2017-04-20T06:44:15.166Z,1029.67
2017-04-20T06:45:16.510Z,1029.69
2017-04-20T06:46:17.865Z,1029.66
2017-04-20T06:47:19.110Z,1029.57
2017-04-20T06:48:20.382Z,1029.62
2017-04-20T06:49:21.627Z,1029.6
2017-04-20T06:50:22.875Z,1029.65
2017-04-20T06:51:24.181Z,1029.69
2017-04-20T06:52:25.425Z,1029.79
2017-04-20T06:53:26.805Z,1029.75
2017-04-20T06:54:27.930Z,1029.76
2017-04-20T06:55:29.264Z,1029.78
2017-04-20T06:56:30.506Z,1029.76
2017-04-20T06:57:31.763Z,1029.76
2017-04-20T06:58:33.178Z,1029.8
2017-04-20T06:59:34.315Z,1029.85
2017-04-20T07:00:35.596Z,1029.98
2017-04-20T07:01:36.916Z,1030.22
2017-04-20T07:02:38.294Z,1030.38
2017-04-20T07:03:39.544Z,1030.36
2017-04-20T07:04:40.796Z,1030.45
2017-04-20T07:05:42.144Z,1030.25
2017-04-20T07:06:43.397Z,1030.34
2017-04-20T07:07:44.659Z,1030.28
2017-04-20T07:08:46.028Z,1030.43
2017-04-20T07:09:47.342Z,1030.39
2017-04-20T07:10:48.591Z,1030.68
2017-04-20T07:11:49.863Z,1030.68
2017-04-20T07:12:51.127Z,1030.65
2017-04-20T07:13:52.457Z,1030.7
2017-04-20T07:14:53.714Z,1030.67
2017-04-20T07:15:54.984Z,1030.43
2017-04-20T07:16:56.210Z,1030.49
2017-04-20T07:17:57.455Z,1030.58
2017-04-20T07:18:58.710Z,1030.6
2017-04-20T07:19:59.961Z,1030.57
2017-04-20T07:21:01.228Z,1030.56
2017-04-20T07:22:02.495Z,1030.67
2017-04-20T07:23:03.784Z,1030.72
2017-04-20T07:24:05.028Z,1030.63
2017-04-20T07:25:06.280Z,1030.6
2017-04-20T07:26:07.547Z,1030.69
2017-04-20T07:27:08.822Z,1030.6
2017-04-20T07:28:10.160Z,1030.67
2017-04-20T07:29:11.485Z,1030.71
2017-04-20T07:30:12.766Z,1030.64
2017-04-20T07:31:14.034Z,1030.58
2017-04-20T07:32:15.399Z,1030.72
2017-04-20T07:33:16.643Z,1030.58
2017-04-20T07:34:17.975Z,1030.63
2017-04-20T07:35:19.235Z,1030.64
2017-04-20T07:36:20.495Z,1030.59
2017-04-20T07:37:21.735Z,1030.67
2017-04-20T07:38:22.989Z,1030.69
2017-04-20T07:39:24.326Z,1030.55
2017-04-20T07:40:25.609Z,1030.53
2017-04-20T07:41:26.872Z,1030.51
2017-04-20T07:42:28.184Z,1030.42
2017-04-20T07:43:29.437Z,1030.3
2017-04-20T07:44:30.730Z,1030.25
2017-04-20T07:45:31.976Z,1030.33
2017-04-20T07:46:33.235Z,1030.31
2017-04-20T07:47:34.489Z,1030.28
2017-04-20T07:48:35.740Z,1030.28
2017-04-20T07:49:36.995Z,1030.16
2017-04-20T07:50:38.364Z,1030.11
2017-04-20T07:51:39.681Z,1030
2017-04-20T07:52:40.984Z,1030.11
2017-04-20T07:53:42.231Z,1030.01
2017-04-20T07:54:43.494Z,1030.14
2017-04-20T07:55:44.750Z,1030.22
2017-04-20T07:56:46.135Z,1030.21
2017-04-20T07:57:47.468Z,1030.11
2017-04-20T07:58:48.826Z,1030.08
2017-04-20T07:59:50.031Z,1030.06
2017-04-20T08:00:51.341Z,1030.04
2017-04-20T08:01:52.576Z,1030.02
2017-04-20T08:02:53.873Z,1029.85
2017-04-20T08:03:55.149Z,1029.86
2017-04-20T08:04:56.468Z,1029.88
2017-04-20T08:05:57.754Z,1029.84
2017-04-20T08:06:59.022Z,1029.88
2017-04-20T08:08:00.391Z,1029.9
2017-04-20T08:09:01.643Z,1029.83
2017-04-20T08:10:03.006Z,1029.89
2017-04-20T08:11:04.152Z,1029.83
2017-04-20T08:12:05.416Z,1029.84
2017-04-20T08:13:06.669Z,1029.81
2017-04-20T08:14:07.918Z,1029.8
2017-04-20T08:15:09.294Z,1029.83
2017-04-20T08:16:10.542Z,1029.74
2017-04-20T08:17:11.875Z,1029.84
2017-04-20T08:18:13.172Z,1029.85
2017-04-20T08:19:14.429Z,1029.82
2017-04-20T08:20:15.686Z,1029.83
2017-04-20T08:21:16.935Z,1029.85
2017-04-20T08:22:18.214Z,1029.84
2017-04-20T08:23:19.448Z,1029.87
2017-04-20T08:24:20.690Z,1029.83
2017-04-20T08:25:21.969Z,1029.92
2017-04-20T08:26:23.215Z,1029.9
2017-04-20T08:27:24.492Z,1029.82
2017-04-20T08:28:25.900Z,1029.92
2017-04-20T08:29:27.163Z,1029.95
2017-04-20T08:30:28.438Z,1029.93
2017-04-20T08:31:29.715Z,1029.91
2017-04-20T08:32:30.936Z,1029.95
2017-04-20T08:33:32.282Z,1029.95
2017-04-20T08:34:33.544Z,1029.98
2017-04-20T08:35:34.815Z,1030.03
2017-04-20T08:36:36.076Z,1030.03
2017-04-20T08:37:37.336Z,1030.05
2017-04-20T08:38:38.591Z,1030.17
2017-04-20T08:39:39.954Z,1030.2
2017-04-20T08:40:41.249Z,1030.24
2017-04-20T08:41:42.501Z,1030.3
2017-04-20T08:42:43.745Z,1030.46
2017-04-20T08:43:45.004Z,1030.43
2017-04-20T08:44:46.303Z,1030.39
2017-04-20T08:45:47.566Z,1030.44
2017-04-20T08:46:48.832Z,1030.45
2017-04-20T08:47:50.085Z,1030.58
2017-04-20T08:48:51.366Z,1030.57
2017-04-20T08:49:52.591Z,1030.56
2017-04-20T08:50:53.847Z,1030.58
2017-04-20T08:51:55.349Z,1030.65
2017-04-20T08:52:56.504Z,1030.8
2017-04-20T08:53:57.732Z,1030.9
2017-04-20T08:54:59.025Z,1030.77
2017-04-20T08:56:00.318Z,1030.82
2017-04-20T08:57:01.587Z,1030.88
2017-04-20T08:58:02.898Z,1030.76
2017-04-20T08:59:04.210Z,1030.77
2017-04-20T09:00:05.491Z,1030.71
2017-04-20T09:01:06.729Z,1030.76
2017-04-20T09:02:08.008Z,1030.76
2017-04-20T09:03:09.411Z,1030.68
2017-04-20T09:04:10.642Z,1030.79
2017-04-20T09:05:11.943Z,1030.82
2017-04-20T09:06:13.189Z,1030.95
2017-04-20T09:07:14.464Z,1030.93
2017-04-20T09:08:15.690Z,1030.78
2017-04-20T09:09:16.948Z,1030.9
2017-04-20T09:10:18.274Z,1030.96
2017-04-20T09:11:19.540Z,1030.93
2017-04-20T09:12:20.777Z,1030.86
2017-04-20T09:13:22.027Z,1030.9
2017-04-20T09:14:23.326Z,1030.71
2017-04-20T09:15:24.705Z,1030.77
2017-04-20T09:16:25.984Z,1030.66
2017-04-20T09:17:27.317Z,1030.77
2017-04-20T09:18:28.593Z,1030.78
2017-04-20T09:19:29.830Z,1030.68
2017-04-20T09:20:31.082Z,1030.62
2017-04-20T09:21:32.426Z,1030.67
2017-04-20T09:22:33.679Z,1030.53
2017-04-20T09:23:34.984Z,1030.52
2017-04-20T09:24:36.236Z,1030.58
2017-04-20T09:25:37.499Z,1030.58
2017-04-20T09:26:38.748Z,1030.55
2017-04-20T09:27:40.005Z,1030.55
2017-04-20T09:28:41.302Z,1030.54
2017-04-20T09:29:42.538Z,1030.6
2017-04-20T09:30:43.790Z,1030.44
2017-04-20T09:31:45.042Z,1030.36
2017-04-20T09:32:46.293Z,1030.37
2017-04-20T09:33:47.599Z,1030.29
2017-04-20T09:34:48.882Z,1030.32
2017-04-20T09:35:50.159Z,1030.24
2017-04-20T09:36:51.416Z,1030.11
2017-04-20T09:37:52.671Z,1030.05
2017-04-20T09:38:53.931Z,1029.97
2017-04-20T09:39:55.305Z,1029.93
2017-04-20T09:40:56.546Z,1029.95
2017-04-20T09:41:57.802Z,1029.9
2017-04-20T09:42:59.292Z,1029.87
2017-04-20T09:44:00.541Z,1029.8
2017-04-20T09:45:01.843Z,1029.8
2017-04-20T09:46:03.197Z,1029.84
2017-04-20T09:47:04.442Z,1029.75
2017-04-20T09:48:05.741Z,1029.69
2017-04-20T09:49:06.967Z,1029.72
2017-04-20T09:50:08.228Z,1029.7
2017-04-20T09:51:09.590Z,1029.67
2017-04-20T09:52:10.943Z,1029.7
2017-04-20T09:53:12.196Z,1029.73
2017-04-20T09:54:13.464Z,1029.81
2017-04-20T09:55:14.724Z,1029.63
2017-04-20T09:56:16.011Z,1029.71
2017-04-20T09:57:17.327Z,1029.51
2017-04-20T09:58:18.589Z,1029.45
2017-04-20T09:59:19.821Z,1029.84
2017-04-20T10:00:21.077Z,1029.76
2017-04-20T10:01:22.408Z,1029.42
2017-04-20T10:02:23.652Z,1029.41
2017-04-20T10:03:24.938Z,1029.41
2017-04-20T10:04:26.238Z,1029.49
2017-04-20T10:05:27.478Z,1029.6
2017-04-20T10:06:28.744Z,1029.61
2017-04-20T10:07:29.972Z,1029.7
2017-04-20T10:08:31.223Z,1029.72
2017-04-20T10:09:32.481Z,1029.72
2017-04-20T10:10:33.754Z,1029.65
2017-04-20T10:11:35.129Z,1029.69
2017-04-20T10:12:36.394Z,1029.66
2017-04-20T10:13:37.640Z,1029.65
2017-04-20T10:14:38.915Z,1029.57
2017-04-20T10:15:40.296Z,1029.58
2017-04-20T10:16:41.565Z,1029.47
2017-04-20T10:17:42.844Z,1029.51
2017-04-20T10:18:44.092Z,1029.53
2017-04-20T10:19:45.369Z,1029.48
2017-04-20T10:20:46.693Z,1029.47
2017-04-20T10:21:48.058Z,1029.43
2017-04-20T10:22:49.307Z,1029.4
2017-04-20T10:23:50.571Z,1029.42
2017-04-20T10:24:51.807Z,1029.39
2017-04-20T10:25:53.064Z,1029.35
2017-04-20T10:26:54.316Z,1029.39
2017-04-20T10:27:55.641Z,1029.37
2017-04-20T10:28:56.957Z,1029.35
2017-04-20T10:29:58.223Z,1029.27
2017-04-20T10:30:59.451Z,1029.27
2017-04-20T10:32:00.721Z,1029.27
2017-04-20T10:33:02.011Z,1029.28
2017-04-20T10:34:03.309Z,1029.29
2017-04-20T10:35:04.554Z,1029.27
2017-04-20T10:36:05.801Z,1029.23
2017-04-20T10:37:07.049Z,1029.23
2017-04-20T10:38:08.322Z,1029.17
2017-04-20T10:39:09.582Z,1029.15
2017-04-20T10:40:10.870Z,1029.1
2017-04-20T10:41:12.209Z,1029.05
2017-04-20T10:42:13.502Z,1029.04
2017-04-20T10:43:14.760Z,1029.09
2017-04-20T10:44:16.026Z,1029.11
2017-04-20T10:45:17.404Z,1029.08
2017-04-20T10:46:18.665Z,1029.04
2017-04-20T10:47:19.923Z,1029.03
2017-04-20T10:48:21.193Z,1029.09
2017-04-20T10:49:22.531Z,1029.13
2017-04-20T10:50:23.783Z,1029.11
2017-04-20T10:51:25.064Z,1029.09
2017-04-20T10:52:26.294Z,1029.03
2017-04-20T10:53:27.559Z,1029.05
2017-04-20T10:54:28.818Z,1029.03
2017-04-20T10:55:30.087Z,1028.98
2017-04-20T10:56:31.311Z,1029.01
2017-04-20T10:57:32.641Z,1028.97
2017-04-20T10:58:33.918Z,1029.09
2017-04-20T10:59:35.266Z,1029.04
2017-04-20T11:00:36.541Z,1029.03
2017-04-20T11:01:37.779Z,1028.98
2017-04-20T11:02:39.010Z,1028.96
2017-04-20T11:03:40.320Z,1028.97
2017-04-20T11:04:41.559Z,1028.93
2017-04-20T11:05:42.799Z,1028.95
2017-04-20T11:06:44.049Z,1028.92
2017-04-20T11:07:45.314Z,1028.89
2017-04-20T11:08:46.793Z,1028.85
2017-04-20T11:09:48.107Z,1028.8
2017-04-20T11:10:49.416Z,1028.85
2017-04-20T11:11:50.643Z,1028.91
2017-04-20T11:12:51.890Z,1028.84
2017-04-20T11:13:53.142Z,1028.84
2017-04-20T11:14:54.547Z,1028.8
2017-04-20T11:15:55.897Z,1028.84
2017-04-20T11:16:57.170Z,1028.85
2017-04-20T11:17:58.381Z,1028.86
2017-04-20T11:18:59.628Z,1028.78
2017-04-20T11:20:00.875Z,1028.8
2017-04-20T11:21:02.124Z,1028.77
2017-04-20T11:22:03.415Z,1028.82
2017-04-20T11:23:04.706Z,1028.76
2017-04-20T11:24:05.933Z,1028.77
2017-04-20T11:25:07.186Z,1028.73
2017-04-20T11:26:08.540Z,1028.71
2017-04-20T11:27:09.841Z,1028.69
2017-04-20T11:28:11.059Z,1028.66
2017-04-20T11:29:12.300Z,1028.68
2017-04-20T11:30:13.591Z,1028.69
2017-04-20T11:31:14.826Z,1028.65
2017-04-20T11:32:16.085Z,1028.71
2017-04-20T11:33:17.347Z,1028.62
2017-04-20T11:34:18.697Z,1028.63
2017-04-20T11:35:19.957Z,1028.63
2017-04-20T11:36:21.192Z,1028.61
2017-04-20T11:37:22.452Z,1028.66
2017-04-20T11:38:23.698Z,1028.64
2017-04-20T11:39:24.941Z,1028.61
2017-04-20T11:40:26.180Z,1028.59
2017-04-20T11:41:27.419Z,1028.55
2017-04-20T11:42:28.669Z,1028.52
2017-04-20T11:43:29.895Z,1028.56
2017-04-20T11:44:31.137Z,1028.53
2017-04-20T11:45:32.376Z,1028.54
2017-04-20T11:46:33.634Z,1028.5
2017-04-20T11:47:34.885Z,1028.49
2017-04-20T11:48:36.124Z,1028.51
2017-04-20T11:49:37.410Z,1028.5
2017-04-20T11:50:38.624Z,1028.48
2017-04-20T11:51:39.857Z,1028.48
2017-04-20T11:52:41.113Z,1028.44
2017-04-20T11:53:42.349Z,1028.46
2017-04-20T11:54:43.589Z,1028.43
2017-04-20T11:55:44.841Z,1028.45
2017-04-20T11:56:46.077Z,1028.46
2017-04-20T11:57:47.356Z,1028.45
2017-04-20T11:58:48.673Z,1028.39
2017-04-20T11:59:49.914Z,1028.34
2017-04-20T12:00:51.176Z,1028.39
2017-04-20T12:01:52.431Z,1028.41
2017-04-20T12:02:53.693Z,1028.34
2017-04-20T12:03:54.914Z,1028.42
2017-04-20T12:04:56.214Z,1028.36
2017-04-20T12:05:57.529Z,1028.37
2017-04-20T12:06:58.754Z,1028.31
2017-04-20T12:08:00.007Z,1028.35
2017-04-20T12:09:01.248Z,1028.3
2017-04-20T12:10:02.536Z,1028.27
2017-04-20T12:11:03.828Z,1028.26
2017-04-20T12:12:05.243Z,1028.27
2017-04-20T12:13:06.399Z,1028.29
2017-04-20T12:14:07.684Z,1028.28
2017-04-20T12:15:09.026Z,1028.27
2017-04-20T12:16:10.278Z,1028.25
2017-04-20T12:17:11.540Z,1028.19
2017-04-20T12:18:12.789Z,1028.18
2017-04-20T12:19:14.022Z,1028.15
2017-04-20T12:20:15.265Z,1028.16
2017-04-20T12:21:16.519Z,1028.16
2017-04-20T12:22:17.761Z,1028.19
2017-04-20T12:23:19.039Z,1028.1
2017-04-20T12:24:20.298Z,1028.09
2017-04-20T12:25:21.602Z,1028.14